sensor_id;sensor_type;location;lat;lon;timestamp;pressure;altitude;pressure_sealevel;temperature;humidity
22389;BME280;11362;48.102;11.620;2023-04-09T00:02:09;95773.78;;;22.52;29.36
22389;BME280;11362;48.102;11.620;2023-04-09T00:04:34;95776.56;;;22.52;29.45
22389;BME280;11362;48.102;11.620;2023-04-09T00:06:59;95772.97;;;22.52;29.19
22389;BME280;11362;48.102;11.620;2023-04-09T00:09:25;95775.38;;;22.53;29.18
22389;BME280;11362;48.102;11.620;2023-04-09T00:11:50;95770.59;;;22.54;29.34
22389;BME280;11362;48.102;11.620;2023-04-09T00:14:15;95770.59;;;22.54;29.34
22389;BME280;11362;48.102;11.620;2023-04-09T00:16:41;95778.13;;;22.53;29.37
22389;BME280;11362;48.102;11.620;2023-04-09T00:19:06;95767.44;;;22.52;29.34
22389;BME280;11362;48.102;11.620;2023-04-09T00:21:31;95769.81;;;22.53;29.26
22389;BME280;11362;48.102;11.620;2023-04-09T00:23:56;95771.03;;;22.52;29.41
22389;BME280;11362;48.102;11.620;2023-04-09T00:26:22;95765.06;;;22.54;29.37
22389;BME280;11362;48.102;11.620;2023-04-09T00:28:47;95759.13;;;22.52;29.23
22389;BME280;11362;48.102;11.620;2023-04-09T00:31:12;95764.69;;;22.52;29.34
22389;BME280;11362;48.102;11.620;2023-04-09T00:33:38;95769.03;;;22.53;29.37
22389;BME280;11362;48.102;11.620;2023-04-09T00:36:03;95753.59;;;22.52;29.38
22389;BME280;11362;48.102;11.620;2023-04-09T00:38:28;95761.91;;;22.52;29.28
22389;BME280;11362;48.102;11.620;2023-04-09T00:40:54;95759.13;;;22.52;29.22
22389;BME280;11362;48.102;11.620;2023-04-09T00:43:19;95761.53;;;22.50;29.53
22389;BME280;11362;48.102;11.620;2023-04-09T00:45:44;95758.75;;;22.53;29.26
22389;BME280;11362;48.102;11.620;2023-04-09T00:48:11;95759.53;;;22.54;29.21
22389;BME280;11362;48.102;11.620;2023-04-09T00:50:37;95750.84;;;22.52;29.18
22389;BME280;11362;48.102;11.620;2023-04-09T00:53:03;95760.72;;;22.53;29.17
22389;BME280;11362;48.102;11.620;2023-04-09T00:55:29;95763.50;;;22.53;29.36
22389;BME280;11362;48.102;11.620;2023-04-09T00:57:55;95757.19;;;22.52;29.21
22389;BME280;11362;48.102;11.620;2023-04-09T01:00:20;95758.75;;;22.53;29.13
22389;BME280;11362;48.102;11.620;2023-04-09T01:02:46;95753.59;;;22.52;29.10
22389;BME280;11362;48.102;11.620;2023-04-09T01:05:12;95756.38;;;22.52;29.11
22389;BME280;11362;48.102;11.620;2023-04-09T01:07:52;95757.94;;;22.53;29.24
22389;BME280;11362;48.102;11.620;2023-04-09T01:10:34;95759.13;;;22.52;29.19
22389;BME280;11362;48.102;11.620;2023-04-09T01:13:10;95753.59;;;22.52;29.19
22389;BME280;11362;48.102;11.620;2023-04-09T01:15:39;95762.72;;;22.52;29.34
22389;BME280;11362;48.102;11.620;2023-04-09T01:18:17;95761.91;;;22.52;29.18
22389;BME280;11362;48.102;11.620;2023-04-09T01:20:59;95753.22;;;22.53;29.25
22389;BME280;11362;48.102;11.620;2023-04-09T01:23:39;95761.91;;;22.52;29.32
22389;BME280;11362;48.102;11.620;2023-04-09T01:28:36;95754.78;;;22.51;29.08
22389;BME280;11362;48.102;11.620;2023-04-09T01:31:08;95754.00;;;22.50;29.17
22389;BME280;11362;48.102;11.620;2023-04-09T01:33:35;95753.22;;;22.50;29.26
22389;BME280;11362;48.102;11.620;2023-04-09T01:36:03;95753.22;;;22.50;29.33
22389;BME280;11362;48.102;11.620;2023-04-09T01:38:29;95756.00;;;22.50;29.10
22389;BME280;11362;48.102;11.620;2023-04-09T01:40:55;95754.41;;;22.52;29.00
22389;BME280;11362;48.102;11.620;2023-04-09T01:43:21;95754.00;;;22.50;29.19
22389;BME280;11362;48.102;11.620;2023-04-09T01:45:48;95753.22;;;22.50;29.17
22389;BME280;11362;48.102;11.620;2023-04-09T01:48:15;95752.41;;;22.49;29.29
22389;BME280;11362;48.102;11.620;2023-04-09T01:50:40;95757.97;;;22.49;29.28
22389;BME280;11362;48.102;11.620;2023-04-09T01:53:06;95760.72;;;22.49;29.33
22389;BME280;11362;48.102;11.620;2023-04-09T01:55:31;95754.00;;;22.50;29.17
22389;BME280;11362;48.102;11.620;2023-04-09T01:57:57;95753.22;;;22.50;29.28
22389;BME280;11362;48.102;11.620;2023-04-09T02:00:23;95756.00;;;22.50;29.30
22389;BME280;11362;48.102;11.620;2023-04-09T02:03:01;95750.84;;;22.48;29.39
22389;BME280;11362;48.102;11.620;2023-04-09T02:05:36;95758.75;;;22.50;29.21
22389;BME280;11362;48.102;11.620;2023-04-09T02:08:02;95759.94;;;22.49;29.22
22389;BME280;11362;48.102;11.620;2023-04-09T02:10:30;95759.94;;;22.49;29.10
22389;BME280;11362;48.102;11.620;2023-04-09T02:12:56;95761.91;;;22.48;29.16
22389;BME280;11362;48.102;11.620;2023-04-09T02:15:23;95757.19;;;22.49;29.38
22389;BME280;11362;48.102;11.620;2023-04-09T02:17:49;95756.38;;;22.48;29.15
22389;BME280;11362;48.102;11.620;2023-04-09T02:20:18;95757.19;;;22.49;29.30
22389;BME280;11362;48.102;11.620;2023-04-09T02:22:44;95752.84;;;22.48;29.13
22389;BME280;11362;48.102;11.620;2023-04-09T02:25:10;95755.59;;;22.48;29.28
22389;BME280;11362;48.102;11.620;2023-04-09T02:27:35;95761.16;;;22.48;29.08
22389;BME280;11362;48.102;11.620;2023-04-09T02:30:00;95750.47;;;22.46;29.32
22389;BME280;11362;48.102;11.620;2023-04-09T02:32:26;95750.06;;;22.48;29.16
22389;BME280;11362;48.102;11.620;2023-04-09T02:34:51;95748.47;;;22.47;29.04
22389;BME280;11362;48.102;11.620;2023-04-09T02:37:16;95751.22;;;22.47;29.08
22389;BME280;11362;48.102;11.620;2023-04-09T02:39:42;95756.00;;;22.46;29.15
22389;BME280;11362;48.102;11.620;2023-04-09T02:42:07;95763.09;;;22.47;29.31
22389;BME280;11362;48.102;11.620;2023-04-09T02:44:32;95756.38;;;22.48;29.05
22389;BME280;11362;48.102;11.620;2023-04-09T02:46:57;95757.19;;;22.49;29.12
22389;BME280;11362;48.102;11.620;2023-04-09T02:49:23;95754.00;;;22.47;29.18
22389;BME280;11362;48.102;11.620;2023-04-09T02:51:48;95752.03;;;22.47;29.06
22389;BME280;11362;48.102;11.620;2023-04-09T02:54:13;95744.53;;;22.48;29.29
22389;BME280;11362;48.102;11.620;2023-04-09T02:56:39;95742.94;;;22.47;29.40
22389;BME280;11362;48.102;11.620;2023-04-09T02:59:04;95737.38;;;22.47;29.26
22389;BME280;11362;48.102;11.620;2023-04-09T03:01:29;95739.78;;;22.45;29.21
22389;BME280;11362;48.102;11.620;2023-04-09T03:03:54;95744.91;;;22.46;29.25
22389;BME280;11362;48.102;11.620;2023-04-09T03:06:20;95739.78;;;22.45;29.17
22389;BME280;11362;48.102;11.620;2023-04-09T03:08:45;95735.81;;;22.46;29.20
22389;BME280;11362;48.102;11.620;2023-04-09T03:11:10;95737.00;;;22.45;29.24
22389;BME280;11362;48.102;11.620;2023-04-09T03:13:36;95731.09;;;22.46;29.21
22389;BME280;11362;48.102;11.620;2023-04-09T03:16:01;95733.84;;;22.46;29.23
22389;BME280;11362;48.102;11.620;2023-04-09T03:18:26;95733.03;;;22.46;29.30
22389;BME280;11362;48.102;11.620;2023-04-09T03:20:51;95724.75;;;22.46;29.20
22389;BME280;11362;48.102;11.620;2023-04-09T03:23:17;95732.28;;;22.45;29.22
22389;BME280;11362;48.102;11.620;2023-04-09T03:25:42;95729.50;;;22.45;29.28
22389;BME280;11362;48.102;11.620;2023-04-09T03:28:07;95726.75;;;22.45;29.15
22389;BME280;11362;48.102;11.620;2023-04-09T03:30:33;95724.75;;;22.46;29.28
22389;BME280;11362;48.102;11.620;2023-04-09T03:32:58;95733.84;;;22.46;29.25
22389;BME280;11362;48.102;11.620;2023-04-09T03:35:23;95747.31;;;22.48;29.13
22389;BME280;11362;48.102;11.620;2023-04-09T03:37:49;95739.78;;;22.45;29.27
22389;BME280;11362;48.102;11.620;2023-04-09T03:40:14;95735.81;;;22.46;29.20
22389;BME280;11362;48.102;11.620;2023-04-09T03:42:41;95748.88;;;22.45;29.18
22389;BME280;11362;48.102;11.620;2023-04-09T03:45:07;95748.88;;;22.45;29.19
22389;BME280;11362;48.102;11.620;2023-04-09T03:47:32;95747.69;;;22.46;29.48
22389;BME280;11362;48.102;11.620;2023-04-09T03:49:57;95745.31;;;22.45;29.13
22389;BME280;11362;48.102;11.620;2023-04-09T03:52:23;95747.69;;;22.46;29.10
22389;BME280;11362;48.102;11.620;2023-04-09T03:54:48;95746.88;;;22.46;29.14
22389;BME280;11362;48.102;11.620;2023-04-09T03:57:13;95755.19;;;22.46;29.14
22389;BME280;11362;48.102;11.620;2023-04-09T03:59:38;95759.16;;;22.45;29.33
22389;BME280;11362;48.102;11.620;2023-04-09T04:02:04;95756.38;;;22.45;29.10
22389;BME280;11362;48.102;11.620;2023-04-09T04:04:29;95757.97;;;22.46;29.00
22389;BME280;11362;48.102;11.620;2023-04-09T04:06:54;95759.97;;;22.45;29.30
22389;BME280;11362;48.102;11.620;2023-04-09T04:09:20;95759.16;;;22.45;29.09
22389;BME280;11362;48.102;11.620;2023-04-09T04:11:45;95759.53;;;22.43;29.16
22389;BME280;11362;48.102;11.620;2023-04-09T04:14:11;95761.16;;;22.44;29.27
22389;BME280;11362;48.102;11.620;2023-04-09T04:16:36;95761.16;;;22.44;29.23
22389;BME280;11362;48.102;11.620;2023-04-09T04:19:01;95762.31;;;22.43;29.12
22389;BME280;11362;48.102;11.620;2023-04-09T04:21:26;95756.78;;;22.43;29.27
22389;BME280;11362;48.102;11.620;2023-04-09T04:23:52;95765.50;;;22.45;29.16
22389;BME280;11362;48.102;11.620;2023-04-09T04:26:17;95765.06;;;22.43;29.13
22389;BME280;11362;48.102;11.620;2023-04-09T04:28:42;95767.06;;;22.43;29.09
22389;BME280;11362;48.102;11.620;2023-04-09T04:31:09;95764.31;;;22.43;29.15
22389;BME280;11362;48.102;11.620;2023-04-09T04:33:34;95770.63;;;22.43;29.14
22389;BME280;11362;48.102;11.620;2023-04-09T04:36:18;95769.84;;;22.43;29.16
22389;BME280;11362;48.102;11.620;2023-04-09T04:38:43;95771.41;;;22.44;29.14
22389;BME280;11362;48.102;11.620;2023-04-09T04:41:10;95769.03;;;22.42;29.06
22389;BME280;11362;48.102;11.620;2023-04-09T04:43:35;95771.41;;;22.44;29.15
22389;BME280;11362;48.102;11.620;2023-04-09T04:46:01;95772.59;;;22.43;29.17
22389;BME280;11362;48.102;11.620;2023-04-09T04:48:27;95774.19;;;22.44;29.11
22389;BME280;11362;48.102;11.620;2023-04-09T04:50:57;95758.78;;;22.43;28.96
22389;BME280;11362;48.102;11.620;2023-04-09T04:53:22;95758.78;;;22.43;29.08
22389;BME280;11362;48.102;11.620;2023-04-09T04:55:48;95752.03;;;22.44;29.12
22389;BME280;11362;48.102;11.620;2023-04-09T04:58:13;95750.47;;;22.43;29.00
22389;BME280;11362;48.102;11.620;2023-04-09T05:00:38;95751.66;;;22.42;29.04
22389;BME280;11362;48.102;11.620;2023-04-09T05:03:03;95759.53;;;22.43;29.30
22389;BME280;11362;48.102;11.620;2023-04-09T05:05:29;95770.63;;;22.43;29.07
22389;BME280;11362;48.102;11.620;2023-04-09T05:07:54;95780.53;;;22.44;29.00
22389;BME280;11362;48.102;11.620;2023-04-09T05:10:19;95794.75;;;22.43;29.02
22389;BME280;11362;48.102;11.620;2023-04-09T05:12:44;95786.44;;;22.43;29.16
22389;BME280;11362;48.102;11.620;2023-04-09T05:15:10;95783.69;;;22.43;29.16
22389;BME280;11362;48.102;11.620;2023-04-09T05:17:35;95779.34;;;22.42;29.19
22389;BME280;11362;48.102;11.620;2023-04-09T05:20:01;95785.25;;;22.44;29.15
22389;BME280;11362;48.102;11.620;2023-04-09T05:22:26;95788.03;;;22.44;29.02
22389;BME280;11362;48.102;11.620;2023-04-09T05:24:51;95786.44;;;22.43;29.00
22389;BME280;11362;48.102;11.620;2023-04-09T05:27:17;95793.56;;;22.44;29.13
22389;BME280;11362;48.102;11.620;2023-04-09T05:29:42;95795.53;;;22.43;29.02
22389;BME280;11362;48.102;11.620;2023-04-09T05:32:07;95795.53;;;22.43;29.11
22389;BME280;11362;48.102;11.620;2023-04-09T05:34:32;95795.53;;;22.43;29.10
22389;BME280;11362;48.102;11.620;2023-04-09T05:36:58;95795.94;;;22.42;29.01
22389;BME280;11362;48.102;11.620;2023-04-09T05:39:24;95795.94;;;22.42;29.13
22389;BME280;11362;48.102;11.620;2023-04-09T05:41:49;95798.28;;;22.43;29.01
22389;BME280;11362;48.102;11.620;2023-04-09T05:44:14;95793.56;;;22.44;29.12
22389;BME280;11362;48.102;11.620;2023-04-09T05:46:39;95794.75;;;22.43;29.09
22389;BME280;11362;48.102;11.620;2023-04-09T05:49:05;95800.28;;;22.43;29.09
22389;BME280;11362;48.102;11.620;2023-04-09T05:51:30;95788.03;;;22.44;29.00
22389;BME280;11362;48.102;11.620;2023-04-09T05:53:55;95792.38;;;22.45;29.12
22389;BME280;11362;48.102;11.620;2023-04-09T05:56:20;95790.78;;;22.44;29.08
22389;BME280;11362;48.102;11.620;2023-04-09T05:58:46;95788.84;;;22.44;29.07
22389;BME280;11362;48.102;11.620;2023-04-09T06:01:11;95793.56;;;22.44;29.09
22389;BME280;11362;48.102;11.620;2023-04-09T06:03:36;95788.03;;;22.44;28.82
22389;BME280;11362;48.102;11.620;2023-04-09T06:06:02;95783.69;;;22.43;29.00
22389;BME280;11362;48.102;11.620;2023-04-09T06:08:27;95789.59;;;22.45;29.04
22389;BME280;11362;48.102;11.620;2023-04-09T06:10:52;95802.66;;;22.44;29.18
22389;BME280;11362;48.102;11.620;2023-04-09T06:13:17;95807.00;;;22.45;29.03
22389;BME280;11362;48.102;11.620;2023-04-09T06:15:43;95799.09;;;22.44;28.99
22389;BME280;11362;48.102;11.620;2023-04-09T06:18:08;95809.38;;;22.47;29.11
22389;BME280;11362;48.102;11.620;2023-04-09T06:20:33;95806.22;;;22.45;29.15
22389;BME280;11362;48.102;11.620;2023-04-09T06:22:58;95809.38;;;22.43;29.12
22389;BME280;11362;48.102;11.620;2023-04-09T06:25:24;95810.97;;;22.44;29.01
22389;BME280;11362;48.102;11.620;2023-04-09T06:27:49;95802.25;;;22.46;29.01
22389;BME280;11362;48.102;11.620;2023-04-09T06:30:14;95821.63;;;22.46;29.15
22389;BME280;11362;48.102;11.620;2023-04-09T06:32:40;95811.75;;;22.45;28.92
22389;BME280;11362;48.102;11.620;2023-04-09T06:35:05;95818.88;;;22.46;28.98
22389;BME280;11362;48.102;11.620;2023-04-09T06:37:31;95818.88;;;22.42;29.15
22389;BME280;11362;48.102;11.620;2023-04-09T06:39:56;95824.41;;;22.46;29.10
22389;BME280;11362;48.102;11.620;2023-04-09T06:42:21;95820.06;;;22.45;28.93
22389;BME280;11362;48.102;11.620;2023-04-09T06:44:46;95820.84;;;22.45;29.18
22389;BME280;11362;48.102;11.620;2023-04-09T06:47:12;95818.88;;;22.46;29.24
22389;BME280;11362;48.102;11.620;2023-04-09T06:49:37;95822.81;;;22.45;29.15
22389;BME280;11362;48.102;11.620;2023-04-09T06:52:03;95822.81;;;22.45;29.16
22389;BME280;11362;48.102;11.620;2023-04-09T06:54:29;95817.28;;;22.45;29.06
22389;BME280;11362;48.102;11.620;2023-04-09T06:56:54;95822.81;;;22.45;29.17
22389;BME280;11362;48.102;11.620;2023-04-09T06:59:19;95825.97;;;22.47;29.18
22389;BME280;11362;48.102;11.620;2023-04-09T07:01:44;95824.41;;;22.46;29.08
22389;BME280;11362;48.102;11.620;2023-04-09T07:04:10;95822.81;;;22.45;29.17
22389;BME280;11362;48.102;11.620;2023-04-09T07:06:35;95824.41;;;22.46;29.08
22389;BME280;11362;48.102;11.620;2023-04-09T07:09:00;95833.50;;;22.46;29.12
22389;BME280;11362;48.102;11.620;2023-04-09T07:11:26;95831.50;;;22.47;29.06
22389;BME280;11362;48.102;11.620;2023-04-09T07:13:51;95825.59;;;22.45;28.99
22389;BME280;11362;48.102;11.620;2023-04-09T07:16:16;95823.22;;;22.47;29.25
22389;BME280;11362;48.102;11.620;2023-04-09T07:18:41;95831.50;;;22.47;28.94
22389;BME280;11362;48.102;11.620;2023-04-09T07:21:07;95829.16;;;22.45;29.04
22389;BME280;11362;48.102;11.620;2023-04-09T07:23:33;95830.34;;;22.48;29.08
22389;BME280;11362;48.102;11.620;2023-04-09T07:26:03;95836.66;;;22.48;29.09
22389;BME280;11362;48.102;11.620;2023-04-09T07:28:29;95833.13;;;22.48;29.19
22389;BME280;11362;48.102;11.620;2023-04-09T07:30:54;95833.13;;;22.48;29.13
22389;BME280;11362;48.102;11.620;2023-04-09T07:33:20;95829.53;;;22.47;29.18
22389;BME280;11362;48.102;11.620;2023-04-09T07:35:45;95844.19;;;22.48;29.08
22389;BME280;11362;48.102;11.620;2023-04-09T07:38:10;95831.50;;;22.47;29.17
22389;BME280;11362;48.102;11.620;2023-04-09T07:40:35;95829.53;;;22.47;28.92
22389;BME280;11362;48.102;11.620;2023-04-09T07:43:01;95840.22;;;22.49;29.11
22389;BME280;11362;48.102;11.620;2023-04-09T07:45:26;95829.16;;;22.49;29.19
22389;BME280;11362;48.102;11.620;2023-04-09T07:47:52;95829.16;;;22.49;29.09
22389;BME280;11362;48.102;11.620;2023-04-09T07:50:17;95833.13;;;22.48;29.02
22389;BME280;11362;48.102;11.620;2023-04-09T07:52:42;95823.22;;;22.47;29.08
22389;BME280;11362;48.102;11.620;2023-04-09T07:55:08;95826.38;;;22.49;28.98
22389;BME280;11362;48.102;11.620;2023-04-09T07:57:33;95825.19;;;22.50;29.09
22389;BME280;11362;48.102;11.620;2023-04-09T07:59:59;95826.38;;;22.49;28.94
22389;BME280;11362;48.102;11.620;2023-04-09T08:02:24;95839.44;;;22.48;29.04
22389;BME280;11362;48.102;11.620;2023-04-09T08:04:49;95840.22;;;22.49;29.13
22389;BME280;11362;48.102;11.620;2023-04-09T08:07:14;95838.66;;;22.48;28.86
22389;BME280;11362;48.102;11.620;2023-04-09T08:09:40;95838.25;;;22.49;29.00
22389;BME280;11362;48.102;11.620;2023-04-09T08:12:05;95836.28;;;22.50;29.13
22389;BME280;11362;48.102;11.620;2023-04-09T08:14:30;95830.72;;;22.50;29.12
22389;BME280;11362;48.102;11.620;2023-04-09T08:16:56;95848.13;;;22.50;29.06
22389;BME280;11362;48.102;11.620;2023-04-09T08:19:21;95839.81;;;22.50;28.77
22389;BME280;11362;48.102;11.620;2023-04-09T08:21:46;95839.81;;;22.50;28.96
22389;BME280;11362;48.102;11.620;2023-04-09T08:24:12;95841.00;;;22.49;29.08
22389;BME280;11362;48.102;11.620;2023-04-09T08:26:38;95837.47;;;22.49;28.84
22389;BME280;11362;48.102;11.620;2023-04-09T08:29:03;95840.22;;;22.49;29.13
22389;BME280;11362;48.102;11.620;2023-04-09T08:31:29;95843.38;;;22.51;29.08
22389;BME280;11362;48.102;11.620;2023-04-09T08:33:54;95843.38;;;22.51;29.05
22389;BME280;11362;48.102;11.620;2023-04-09T08:36:20;95841.38;;;22.51;28.93
22389;BME280;11362;48.102;11.620;2023-04-09T08:38:45;95849.69;;;22.51;29.05
22389;BME280;11362;48.102;11.620;2023-04-09T08:41:22;95840.22;;;22.52;28.90
22389;BME280;11362;48.102;11.620;2023-04-09T08:43:47;95836.66;;;22.52;28.86
22389;BME280;11362;48.102;11.620;2023-04-09T08:46:16;95836.66;;;22.52;29.11
22389;BME280;11362;48.102;11.620;2023-04-09T08:48:46;95837.03;;;22.50;28.98
22389;BME280;11362;48.102;11.620;2023-04-09T08:51:13;95840.22;;;22.49;29.09
22389;BME280;11362;48.102;11.620;2023-04-09T08:53:39;95852.88;;;22.50;29.06
22389;BME280;11362;48.102;11.620;2023-04-09T08:56:06;95852.06;;;22.49;28.96
22389;BME280;11362;48.102;11.620;2023-04-09T08:58:31;95854.47;;;22.51;29.01
22389;BME280;11362;48.102;11.620;2023-04-09T09:00:57;95857.22;;;22.51;29.06
22389;BME280;11362;48.102;11.620;2023-04-09T09:03:22;95847.34;;;22.50;29.01
22389;BME280;11362;48.102;11.620;2023-04-09T09:05:47;95851.31;;;22.49;28.96
22389;BME280;11362;48.102;11.620;2023-04-09T09:08:22;95861.56;;;22.48;29.09
22389;BME280;11362;48.102;11.620;2023-04-09T09:10:48;95861.97;;;22.50;28.98
22389;BME280;11362;48.102;11.620;2023-04-09T09:13:18;95853.66;;;22.50;28.94
22389;BME280;11362;48.102;11.620;2023-04-09T09:15:44;95849.31;;;22.49;29.02
22389;BME280;11362;48.102;11.620;2023-04-09T09:18:09;95851.31;;;22.49;29.08
22389;BME280;11362;48.102;11.620;2023-04-09T09:20:34;95856.84;;;22.49;28.97
22389;BME280;11362;48.102;11.620;2023-04-09T09:23:00;95851.31;;;22.49;28.96
22389;BME280;11362;48.102;11.620;2023-04-09T09:25:25;95852.06;;;22.49;28.97
22389;BME280;11362;48.102;11.620;2023-04-09T09:27:51;95855.25;;;22.48;29.09
22389;BME280;11362;48.102;11.620;2023-04-09T09:30:25;95873.44;;;22.49;28.96
22389;BME280;11362;48.102;11.620;2023-04-09T09:33:03;95873.44;;;22.49;29.11
22389;BME280;11362;48.102;11.620;2023-04-09T09:35:29;95860.00;;;22.51;28.92
22389;BME280;11362;48.102;11.620;2023-04-09T09:38:02;95858.41;;;22.50;29.08
22389;BME280;11362;48.102;11.620;2023-04-09T09:40:28;95852.06;;;22.49;29.06
22389;BME280;11362;48.102;11.620;2023-04-09T09:42:57;95841.81;;;22.50;29.04
22389;BME280;11362;48.102;11.620;2023-04-09T09:45:23;95855.22;;;22.51;29.13
22389;BME280;11362;48.102;11.620;2023-04-09T09:47:48;95850.50;;;22.52;28.90
22389;BME280;11362;48.102;11.620;2023-04-09T09:50:14;95847.72;;;22.52;28.92
22389;BME280;11362;48.102;11.620;2023-04-09T09:52:40;95840.63;;;22.51;29.02
22389;BME280;11362;48.102;11.620;2023-04-09T09:55:12;95846.53;;;22.53;29.01
22389;BME280;11362;48.102;11.620;2023-04-09T09:57:41;95850.50;;;22.52;29.02
22389;BME280;11362;48.102;11.620;2023-04-09T10:00:10;95858.81;;;22.52;28.89
22389;BME280;11362;48.102;11.620;2023-04-09T10:02:40;95859.63;;;22.52;29.18
22389;BME280;11362;48.102;11.620;2023-04-09T10:05:07;95858.00;;;22.51;28.85
22389;BME280;11362;48.102;11.620;2023-04-09T10:07:33;95857.63;;;22.53;29.05
22389;BME280;11362;48.102;11.620;2023-04-09T10:10:00;95853.28;;;22.52;28.96
22389;BME280;11362;48.102;11.620;2023-04-09T10:12:26;95857.63;;;22.53;29.09
22389;BME280;11362;48.102;11.620;2023-04-09T10:14:53;95853.28;;;22.52;29.03
22389;BME280;11362;48.102;11.620;2023-04-09T10:17:19;95852.06;;;22.53;29.23
22389;BME280;11362;48.102;11.620;2023-04-09T10:19:50;95856.03;;;22.52;29.15
22389;BME280;11362;48.102;11.620;2023-04-09T10:22:20;95853.28;;;22.52;29.11
22389;BME280;11362;48.102;11.620;2023-04-09T10:24:47;95849.31;;;22.53;29.03
22389;BME280;11362;48.102;11.620;2023-04-09T10:27:15;95845.78;;;22.52;29.09
22389;BME280;11362;48.102;11.620;2023-04-09T10:29:48;95852.06;;;22.53;29.09
22389;BME280;11362;48.102;11.620;2023-04-09T10:32:23;95851.31;;;22.52;29.08
22389;BME280;11362;48.102;11.620;2023-04-09T10:34:49;95857.63;;;22.53;29.12
22389;BME280;11362;48.102;11.620;2023-04-09T10:37:22;95849.31;;;22.53;29.15
22389;BME280;11362;48.102;11.620;2023-04-09T10:39:48;95849.31;;;22.53;29.15
22389;BME280;11362;48.102;11.620;2023-04-09T10:42:18;95850.50;;;22.52;29.13
22389;BME280;11362;48.102;11.620;2023-04-09T10:44:44;95851.31;;;22.52;29.07
22389;BME280;11362;48.102;11.620;2023-04-09T10:47:09;95849.69;;;22.51;28.94
22389;BME280;11362;48.102;11.620;2023-04-09T10:49:39;95846.53;;;22.53;29.16
22389;BME280;11362;48.102;11.620;2023-04-09T10:52:09;95846.53;;;22.53;29.01
22389;BME280;11362;48.102;11.620;2023-04-09T10:54:44;95852.88;;;22.53;29.20
22389;BME280;11362;48.102;11.620;2023-04-09T10:59:47;95846.94;;;22.51;29.14
22389;BME280;11362;48.102;11.620;2023-04-09T11:05:18;95848.53;;;22.52;29.03
22389;BME280;11362;48.102;11.620;2023-04-09T11:07:47;95843.78;;;22.53;29.09
22389;BME280;11362;48.102;11.620;2023-04-09T11:10:13;95846.53;;;22.53;29.20
22389;BME280;11362;48.102;11.620;2023-04-09T11:12:38;95844.97;;;22.52;29.02
22389;BME280;11362;48.102;11.620;2023-04-09T11:15:04;95841.00;;;22.53;28.80
22389;BME280;11362;48.102;11.620;2023-04-09T11:17:35;95845.34;;;22.54;28.86
22389;BME280;11362;48.102;11.620;2023-04-09T11:20:02;95831.50;;;22.54;29.14
22389;BME280;11362;48.102;11.620;2023-04-09T11:22:27;95835.84;;;22.55;28.97
22389;BME280;11362;48.102;11.620;2023-04-09T11:24:53;95831.50;;;22.54;28.93
22389;BME280;11362;48.102;11.620;2023-04-09T11:27:18;95834.28;;;22.54;28.97
22389;BME280;11362;48.102;11.620;2023-04-09T11:29:44;95838.63;;;22.55;29.22
22389;BME280;11362;48.102;11.620;2023-04-09T11:32:09;95842.59;;;22.54;29.19
22389;BME280;11362;48.102;11.620;2023-04-09T11:34:34;95831.50;;;22.54;29.01
22389;BME280;11362;48.102;11.620;2023-04-09T11:36:59;95839.81;;;22.54;29.05
22389;BME280;11362;48.102;11.620;2023-04-09T11:39:25;95833.50;;;22.53;29.34
22389;BME280;11362;48.102;11.620;2023-04-09T11:41:50;95836.28;;;22.53;29.14
22389;BME280;11362;48.102;11.620;2023-04-09T11:44:16;95831.13;;;22.52;29.00
22389;BME280;11362;48.102;11.620;2023-04-09T11:46:41;95837.84;;;22.54;29.04
22389;BME280;11362;48.102;11.620;2023-04-09T11:49:07;95829.94;;;22.53;29.10
22389;BME280;11362;48.102;11.620;2023-04-09T11:51:33;95835.47;;;22.53;29.25
22389;BME280;11362;48.102;11.620;2023-04-09T11:54:01;95841.00;;;22.53;28.96
22389;BME280;11362;48.102;11.620;2023-04-09T11:56:30;95844.56;;;22.53;29.02
22389;BME280;11362;48.102;11.620;2023-04-09T11:58:56;95844.97;;;22.52;28.94
22389;BME280;11362;48.102;11.620;2023-04-09T12:01:21;95843.78;;;22.53;29.23
22389;BME280;11362;48.102;11.620;2023-04-09T12:03:53;95846.94;;;22.51;29.32
22389;BME280;11362;48.102;11.620;2023-04-09T12:06:20;95844.97;;;22.52;29.00
22389;BME280;11362;48.102;11.620;2023-04-09T12:08:47;95845.78;;;22.52;29.18
22389;BME280;11362;48.102;11.620;2023-04-09T12:11:14;95850.13;;;22.53;28.96
22389;BME280;11362;48.102;11.620;2023-04-09T12:13:40;95852.06;;;22.53;29.06
22389;BME280;11362;48.102;11.620;2023-04-09T12:16:05;95854.84;;;22.53;29.05
22389;BME280;11362;48.102;11.620;2023-04-09T12:18:35;95858.41;;;22.53;28.98
22389;BME280;11362;48.102;11.620;2023-04-09T12:21:00;95852.06;;;22.53;29.10
22389;BME280;11362;48.102;11.620;2023-04-09T12:23:25;95856.84;;;22.52;29.09
22389;BME280;11362;48.102;11.620;2023-04-09T12:25:51;95850.88;;;22.50;28.96
22389;BME280;11362;48.102;11.620;2023-04-09T12:28:16;95854.84;;;22.53;29.07
22389;BME280;11362;48.102;11.620;2023-04-09T12:30:41;95847.34;;;22.53;28.93
22389;BME280;11362;48.102;11.620;2023-04-09T12:33:07;95847.34;;;22.53;29.08
22389;BME280;11362;48.102;11.620;2023-04-09T12:35:32;95847.34;;;22.53;28.86
22389;BME280;11362;48.102;11.620;2023-04-09T12:37:57;95849.69;;;22.55;29.08
22389;BME280;11362;48.102;11.620;2023-04-09T12:40:23;95846.94;;;22.55;28.84
22389;BME280;11362;48.102;11.620;2023-04-09T12:42:50;95848.94;;;22.54;28.89
22389;BME280;11362;48.102;11.620;2023-04-09T12:45:17;95853.28;;;22.55;29.01
22389;BME280;11362;48.102;11.620;2023-04-09T12:47:43;95832.69;;;22.53;29.03
22389;BME280;11362;48.102;11.620;2023-04-09T12:50:09;95849.69;;;22.55;28.92
22389;BME280;11362;48.102;11.620;2023-04-09T12:52:35;95853.28;;;22.55;29.30
22389;BME280;11362;48.102;11.620;2023-04-09T12:55:01;95849.69;;;22.55;28.87